Etusivu
METAR-TAF:

METAR-TAF

Lentoasemat :

Newport, Vermont, Yhdysvallat

Leveyspiiri: 44-53-20N, Pituuspiiri: 072-13-45W, korkeus merenpinnasta: 283 m

Tämänhetkinen sää

Tämä raportti tehtiin 19 minuuttia sitten, kello 10.56 UTC
Tuuli 4 kn lännestä/lounaasta
Lämpötila -6°C
Kosteus 86%
Ilmanpaine 1015 hPa
Näkyvyys: 16.1 km
Pilvistä 1700 ft:n korkeudessa
heikkoa lumisadetta

METAR: KEFK 061056Z AUTO 24004KT 10SM -SN OVC017 M06/M08 A2997 RMK AO2 T10611080

Aika: 06:15 (11:15 UTC)


TAF: puuttuu

Säähavainnot ja -ennusteet yli 4000 lentoasemalta (METAR- ja TAF-raportit).

Käytössä olevat sääasemat on merkitty karttaan keltaisilla ja punaisilla pisteillä.

Aseta hiiri pisteen päälle nähdäksesi sääaseman nimen.

Klikkaa sitten nähdäksesi säähavainnot ja -ennusteet.

Kartan vaihtaminen: klikkaa mustalla rastilla varustettuja vihreitä pisteitä, niin voit zoomata sisään; viivalla varustettua vihreää pistettä, niin voit zoomata ulos tai vihreitä nuolia, niin pääset viereisille kartoille.


METAR-TAF: